Главная страница
METAR-TAF:

METAR-TAF

Аэропорты :

Нджамена, Чад

широта: 12-08N, долгота: 015-02E, высота над уровнем моря: 295 м

Текущие метеонаблюдения

Эта сводка был подготовлена 48 минут назад, в 20:00 UTC
Ветер 3 Узел от южный
Температура 34°C
Влажность 25%
Давление 1006 hPa
Видимость: 6000 м

METAR: FTTJ 242000Z 19003KT 6000 NSC 34/11 Q1006 NOSIG

Время: 21:48 (20:48 UTC)

Прогноз

Эта сводка был подготовлена 3 часа и 48 минут назад, в 17:00 UTC
Прогноз действительный с 24-го 18 UTC до 25-го 24 UTC
Ветер 4 Узел переменных направлений
Видимость: 6000 м
изменения
С 25-го 06 UTC до 25-го 08 UTC
Ветер 10 Узел от юго-западный
Вероятность 30% :
временами
С 25-го 15 UTC до 25-го 21 UTC
небольшая облачность на высоте 4000 фута
небольшая облачность на высоте 5000 фута, Кучево-дождевые.
гроза

TAF: FTTJ 241700Z 2418/2524 VRB04KT 6000 NSW BECMG 2506/2508 22010KT PROB30 TEMPO 2515/2521 TS FEW040 FEW050CB

Метеонаблюдения и прогнозы для более 4000 аэропортов (сводки METAR и TAF).

Имеющиеся станции представлены на карте желтыми и красными точками.

Чтобы увидеть название станции, наведите на нее мышь.

Затем щелкните, чтобы увидеть метеонаблюдения и метеопрогнозы.

Управление картой: чтобы увеличить масштаб, щелкните зеленые кнопки с черным крестиком; чтобы уменьшить масштаб, щелкните зеленую кнопку с тире; для просмотра соседних карт щелкайте зеленые стрелки.


METAR-TAF: